Time;durP1;ratioP1;P1;durP2;ratioP2;P2;SDS_P1;SDS_P2;PMS_P1;PMS_P2;Temp;Humidity;BMP_temperature;BMP_pressure;BME280_temperature;BME280_humidity;BME280_pressure;Samples;Min_cycle;Max_cycle;Signal;HPM_P1;HPM_P2
2021/04/10 00:00:43;;;;;;;5.82;3.10;;;6.70;65.80;;;;;;5053516;28;20112;-74
2021/04/10 00:03:10;;;;;;;10.05;3.83;;;6.50;66.30;;;;;;5053559;28;20027;-74
2021/04/10 00:05:36;;;;;;;8.60;3.38;;;6.60;66.30;;;;;;5053354;28;20025;-74
2021/04/10 00:08:02;;;;;;;8.93;4.50;;;6.40;66.30;;;;;;5053405;28;20039;-74
2021/04/10 00:10:30;;;;;;;7.95;4.25;;;6.60;67.50;;;;;;5053185;28;20029;-74
2021/04/10 00:12:57;;;;;;;9.32;3.50;;;6.80;66.00;;;;;;5053280;28;20024;-75
2021/04/10 00:15:23;;;;;;;7.47;3.35;;;6.80;65.20;;;;;;5051979;28;20392;-73
2021/04/10 00:17:49;;;;;;;6.43;4.35;;;6.90;64.50;;;;;;5053270;28;20021;-72
2021/04/10 00:20:19;;;;;;;7.95;3.30;;;6.80;65.10;;;;;;5053322;28;20100;-72
2021/04/10 00:22:45;;;;;;;8.80;4.15;;;6.80;64.90;;;;;;5053136;28;20388;-73
2021/04/10 00:25:12;;;;;;;5.47;3.42;;;6.80;65.30;;;;;;5051772;28;20025;-73
2021/04/10 00:27:38;;;;;;;7.72;4.03;;;6.80;65.10;;;;;;5052938;28;20420;-73
2021/04/10 00:30:07;;;;;;;8.45;4.43;;;6.70;65.50;;;;;;5052829;28;20024;-73
2021/04/10 00:32:33;;;;;;;8.02;3.50;;;6.80;65.70;;;;;;5052883;28;20021;-73
2021/04/10 00:34:58;;;;;;;5.20;3.25;;;6.70;65.70;;;;;;5052807;28;20032;-73
2021/04/10 00:37:24;;;;;;;9.98;4.07;;;6.50;66.20;;;;;;5052866;28;20033;-73
2021/04/10 00:39:50;;;;;;;28.75;4.43;;;6.20;67.90;;;;;;5052587;28;20044;-73
2021/04/10 00:42:16;;;;;;;13.25;3.75;;;6.20;68.90;;;;;;5052779;28;20056;-73
2021/04/10 00:44:42;;;;;;;6.63;3.35;;;6.10;68.80;;;;;;5052649;28;20029;-73
2021/04/10 00:47:07;;;;;;;4.70;3.50;;;6.20;67.60;;;;;;5052751;28;20027;-73
2021/04/10 00:49:33;;;;;;;6.28;3.08;;;6.30;66.80;;;;;;5052553;28;20121;-73
2021/04/10 00:52:00;;;;;;;4.50;3.33;;;6.40;66.30;;;;;;5052390;28;20567;-73
2021/04/10 00:54:27;;;;;;;9.07;3.78;;;6.50;66.40;;;;;;5052608;28;20022;-73
2021/04/10 00:56:53;;;;;;;7.32;3.33;;;6.70;65.00;;;;;;5052419;28;20025;-73
2021/04/10 00:59:18;;;;;;;8.02;3.75;;;6.70;64.30;;;;;;5052450;28;20032;-73
2021/04/10 01:01:44;;;;;;;6.32;2.70;;;6.70;64.40;;;;;;5052339;28;20063;-73
2021/04/10 01:04:10;;;;;;;8.80;3.25;;;6.80;63.70;;;;;;5052440;28;20021;-73
2021/04/10 01:06:36;;;;;;;8.75;3.25;;;7.00;63.00;;;;;;5052222;28;20033;-73
2021/04/10 01:09:02;;;;;;;8.32;3.80;;;7.20;61.90;;;;;;5052287;28;20029;-73
2021/04/10 01:11:37;;;;;;;7.10;3.47;;;7.20;61.70;;;;;;5052064;28;20436;-73
2021/04/10 01:14:34;;;;;;;8.27;3.00;;;7.10;61.50;;;;;;5052274;28;20477;-73
2021/04/10 01:17:06;;;;;;;9.40;3.30;;;7.10;62.00;;;;;;5052117;28;20029;-73
2021/04/10 01:19:53;;;;;;;9.70;3.20;;;7.10;62.50;;;;;;5052149;28;20032;-73
2021/04/10 01:22:30;;;;;;;5.72;3.00;;;7.10;62.30;;;;;;5052011;28;20138;-73
2021/04/10 01:25:08;;;;;;;7.90;3.45;;;7.20;62.40;;;;;;5051642;28;20032;-73
2021/04/10 01:27:41;;;;;;;9.95;3.95;;;7.20;61.10;;;;;;5052047;28;20029;-74
2021/04/10 01:30:09;;;;;;;9.50;3.95;;;7.20;61.30;;;;;;5051946;28;20029;-74
2021/04/10 01:32:39;;;;;;;7.13;4.25;;;7.40;60.70;;;;;;5051956;28;20036;-73
2021/04/10 01:35:17;;;;;;;6.47;3.47;;;7.20;61.60;;;;;;5051985;28;20021;-73
2021/04/10 01:37:51;;;;;;;5.47;3.25;;;7.00;63.60;;;;;;5051923;28;20049;-74
2021/04/10 01:40:18;;;;;;;7.72;3.67;;;6.90;63.90;;;;;;5051774;28;20066;-74
2021/04/10 01:42:47;;;;;;;8.95;4.10;;;6.90;64.10;;;;;;5051907;28;20033;-73
2021/04/10 01:45:14;;;;;;;8.32;4.40;;;6.80;64.50;;;;;;5051829;28;20017;-74
2021/04/10 01:47:43;;;;;;;9.27;3.55;;;6.60;65.30;;;;;;5051862;28;20389;-73
2021/04/10 01:50:09;;;;;;;8.35;3.78;;;6.70;65.90;;;;;;5051801;28;20128;-74
2021/04/10 01:52:36;;;;;;;10.18;3.38;;;6.70;64.70;;;;;;5051623;28;20025;-74
2021/04/10 01:55:03;;;;;;;8.50;5.53;;;6.60;65.30;;;;;;5051812;28;20445;-74
2021/04/10 01:57:31;;;;;;;8.32;3.88;;;6.60;65.90;;;;;;5051703;28;20013;-74
2021/04/10 01:59:58;;;;;;;5.75;3.65;;;6.70;66.00;;;;;;5051727;28;20116;-73
2021/04/10 02:02:25;;;;;;;5.25;3.45;;;6.70;65.20;;;;;;5051676;28;20060;-73
2021/04/10 02:04:51;;;;;;;8.40;4.35;;;6.80;64.90;;;;;;5051694;28;20040;-74
2021/04/10 02:07:22;;;;;;;6.82;3.65;;;6.80;65.80;;;;;;5051641;28;20488;-73
2021/04/10 02:09:50;;;;;;;7.35;3.58;;;6.70;64.90;;;;;;5051557;28;20021;-73
2021/04/10 02:12:20;;;;;;;8.88;3.55;;;6.80;65.60;;;;;;5051498;28;20036;-73
2021/04/10 02:14:47;;;;;;;19.80;3.80;;;6.80;64.50;;;;;;5051646;28;20400;-73
2021/04/10 02:17:16;;;;;;;8.75;3.45;;;6.80;64.30;;;;;;5050260;28;20021;-73
2021/04/10 02:19:43;;;;;;;10.13;3.72;;;6.90;64.40;;;;;;5051509;28;20036;-74
2021/04/10 02:22:10;;;;;;;12.65;4.00;;;7.10;65.40;;;;;;5051516;28;20029;-74
2021/04/10 02:24:35;;;;;;;14.07;3.97;;;7.20;62.70;;;;;;5051470;28;20051;-73
2021/04/10 02:27:01;;;;;;;14.32;3.83;;;7.30;62.70;;;;;;5051469;28;20037;-73
2021/04/10 02:29:27;;;;;;;8.13;3.70;;;7.30;62.70;;;;;;5051424;28;20091;-74
2021/04/10 02:32:02;;;;;;;4.97;2.90;;;7.40;61.80;;;;;;5051331;28;20409;-73
2021/04/10 02:34:31;;;;;;;11.80;3.67;;;7.40;61.40;;;;;;5051510;28;20638;-74
2021/04/10 02:36:58;;;;;;;7.47;3.72;;;7.30;61.20;;;;;;5052226;28;20477;-73
2021/04/10 02:39:26;;;;;;;10.10;3.65;;;7.10;61.40;;;;;;5055012;28;20670;-74
2021/04/10 02:41:54;;;;;;;5.60;3.35;;;7.10;61.50;;;;;;5054973;28;20445;-74
2021/04/10 02:44:25;;;;;;;7.32;3.53;;;7.20;61.80;;;;;;5055014;28;20025;-74
2021/04/10 02:46:56;;;;;;;8.65;3.20;;;7.20;61.40;;;;;;5053787;28;20155;-74
2021/04/10 02:49:26;;;;;;;9.75;3.88;;;7.40;62.40;;;;;;5054939;28;20385;-73
2021/04/10 02:51:58;;;;;;;8.15;3.95;;;7.50;62.90;;;;;;5054675;28;20127;-74
2021/04/10 02:54:32;;;;;;;5.65;3.40;;;7.50;62.50;;;;;;5054862;28;20033;-74
2021/04/10 02:57:11;;;;;;;12.55;3.72;;;7.40;62.00;;;;;;5054785;28;20441;-73
2021/04/10 02:59:46;;;;;;;6.07;3.47;;;7.40;62.10;;;;;;5053521;28;20116;-73
2021/04/10 03:02:12;;;;;;;9.23;4.13;;;7.30;62.70;;;;;;5054657;28;20060;-74
2021/04/10 03:04:41;;;;;;;5.20;3.83;;;7.00;64.10;;;;;;5054650;28;20025;-74
2021/04/10 03:07:08;;;;;;;6.70;4.07;;;6.80;65.20;;;;;;5054525;28;20052;-73
2021/04/10 03:09:37;;;;;;;8.43;4.30;;;7.00;65.10;;;;;;5054384;28;20037;-73
2021/04/10 03:12:04;;;;;;;12.30;3.60;;;7.00;63.60;;;;;;5054359;28;20048;-73
2021/04/10 03:14:30;;;;;;;10.25;3.58;;;7.10;62.90;;;;;;5054453;28;20021;-73
2021/04/10 03:16:58;;;;;;;6.22;3.67;;;7.20;63.40;;;;;;5054334;28;20025;-73
2021/04/10 03:19:25;;;;;;;8.73;3.47;;;7.10;62.70;;;;;;5054289;28;20049;-73
2021/04/10 03:21:51;;;;;;;8.43;4.28;;;7.10;63.10;;;;;;5054246;28;20036;-73
2021/04/10 03:24:17;;;;;;;11.10;3.40;;;7.20;63.70;;;;;;5054332;28;20025;-73
2021/04/10 03:26:43;;;;;;;8.90;3.72;;;7.20;63.70;;;;;;5054180;28;20384;-74
2021/04/10 03:29:09;;;;;;;6.47;3.35;;;7.00;64.60;;;;;;5054124;28;20028;-74
2021/04/10 03:31:36;;;;;;;7.38;3.78;;;6.80;66.20;;;;;;5053971;28;20441;-73
2021/04/10 03:34:04;;;;;;;7.95;3.80;;;6.70;66.10;;;;;;5054108;28;20423;-73
2021/04/10 03:36:30;;;;;;;10.73;3.88;;;6.70;66.40;;;;;;5053918;28;20066;-73
2021/04/10 03:38:56;;;;;;;5.50;3.35;;;6.80;65.70;;;;;;5053917;28;20021;-73
2021/04/10 03:41:22;;;;;;;7.55;3.65;;;6.80;65.50;;;;;;5053984;28;20028;-73
2021/04/10 03:43:48;;;;;;;12.23;3.90;;;6.80;66.10;;;;;;5053814;28;20103;-73
2021/04/10 03:46:14;;;;;;;16.38;3.22;;;6.90;65.20;;;;;;5053904;28;20068;-73
2021/04/10 03:48:40;;;;;;;8.88;3.90;;;7.10;65.30;;;;;;5053293;28;20079;-73
2021/04/10 03:51:06;;;;;;;8.52;3.85;;;7.20;63.30;;;;;;5053665;28;20036;-73
2021/04/10 03:53:32;;;;;;;22.63;4.30;;;7.10;63.70;;;;;;5053637;28;20076;-73
2021/04/10 03:55:57;;;;;;;8.95;4.18;;;7.00;64.80;;;;;;5053798;28;20435;-73
2021/04/10 03:58:23;;;;;;;10.13;3.75;;;6.90;64.40;;;;;;5053496;28;20104;-73
2021/04/10 04:00:49;;;;;;;8.48;3.45;;;7.00;64.20;;;;;;5053577;28;20120;-74
2021/04/10 04:03:15;;;;;;;8.68;3.47;;;7.00;63.30;;;;;;5053482;28;20024;-73
2021/04/10 04:05:41;;;;;;;10.00;3.47;;;7.10;63.30;;;;;;5053454;28;20526;-73
2021/04/10 04:08:06;;;;;;;12.73;3.95;;;7.10;62.60;;;;;;5053338;28;20542;-73
2021/04/10 04:10:32;;;;;;;8.98;2.95;;;7.20;62.70;;;;;;5053373;28;20384;-73
2021/04/10 04:12:58;;;;;;;10.05;3.78;;;7.30;63.20;;;;;;5053338;28;20087;-73
2021/04/10 04:15:24;;;;;;;11.55;4.18;;;7.30;62.80;;;;;;5051991;28;20024;-73
2021/04/10 04:17:49;;;;;;;9.15;3.42;;;7.30;62.70;;;;;;5053185;28;20020;-73
2021/04/10 04:20:15;;;;;;;9.18;3.47;;;7.00;63.80;;;;;;5053228;28;20496;-73
2021/04/10 04:22:41;;;;;;;12.98;3.63;;;6.90;63.90;;;;;;5051732;28;20393;-74
2021/04/10 04:25:08;;;;;;;7.97;4.28;;;6.60;66.00;;;;;;5053162;28;20025;-74
2021/04/10 04:27:35;;;;;;;9.32;3.92;;;6.40;66.30;;;;;;5053048;28;20025;-73
2021/04/10 04:30:13;;;;;;;9.93;3.67;;;6.40;67.00;;;;;;5053079;28;20036;-73
2021/04/10 04:32:38;;;;;;;9.07;3.60;;;6.30;67.50;;;;;;5052810;28;20025;-73
2021/04/10 04:35:04;;;;;;;10.48;4.20;;;6.40;66.60;;;;;;5051650;28;20036;-73
2021/04/10 04:37:31;;;;;;;11.07;3.63;;;6.50;66.70;;;;;;5052828;28;20029;-73
2021/04/10 04:39:56;;;;;;;10.77;4.38;;;6.50;66.30;;;;;;5051522;28;20029;-73
2021/04/10 04:42:22;;;;;;;9.55;3.60;;;6.50;66.80;;;;;;5052806;28;20361;-73
2021/04/10 04:44:48;;;;;;;14.18;4.10;;;6.50;65.80;;;;;;5052756;28;20504;-73
2021/04/10 04:47:14;;;;;;;7.78;4.35;;;6.60;65.80;;;;;;5051440;28;20033;-73
2021/04/10 04:49:40;;;;;;;7.60;3.60;;;6.70;65.90;;;;;;5052566;28;20032;-73
2021/04/10 04:52:06;;;;;;;7.43;3.92;;;6.90;64.50;;;;;;5052413;28;20029;-73
2021/04/10 04:54:31;;;;;;;8.95;3.35;;;6.90;64.50;;;;;;5034694;28;20025;-73
2021/04/10 04:56:57;;;;;;;7.40;3.67;;;7.00;65.10;;;;;;5052498;28;20033;-73
2021/04/10 04:59:23;;;;;;;11.52;2.92;;;7.00;64.30;;;;;;5051662;28;20423;-73
2021/04/10 05:01:49;;;;;;;11.18;3.60;;;7.10;64.10;;;;;;5052422;28;20476;-73
2021/04/10 05:04:14;;;;;;;15.60;5.28;;;7.20;64.50;;;;;;5052605;28;20029;-73
2021/04/10 05:06:40;;;;;;;10.00;3.88;;;7.10;64.10;;;;;;5052305;28;20037;-73
2021/04/10 05:09:06;;;;;;;9.98;3.80;;;7.10;64.80;;;;;;5052246;28;20033;-73
2021/04/10 05:11:36;;;;;;;9.02;3.60;;;7.20;64.20;;;;;;5052215;28;20017;-73
2021/04/10 05:14:02;;;;;;;8.95;4.20;;;7.30;63.80;;;;;;5052163;28;20017;-73
2021/04/10 05:16:29;;;;;;;10.93;3.55;;;7.30;63.50;;;;;;5052196;28;20025;-73
2021/04/10 05:18:55;;;;;;;12.32;3.35;;;7.30;64.00;;;;;;5052024;28;20025;-73
2021/04/10 05:21:22;;;;;;;9.10;4.45;;;7.40;63.00;;;;;;5051089;28;20377;-73
2021/04/10 05:23:47;;;;;;;15.02;3.72;;;7.40;63.30;;;;;;5052060;28;20043;-73
2021/04/10 05:26:13;;;;;;;11.18;4.43;;;7.40;64.00;;;;;;5052106;28;20476;-73
2021/04/10 05:28:39;;;;;;;12.65;3.83;;;7.50;63.10;;;;;;5051972;28;20029;-73
2021/04/10 05:31:04;;;;;;;6.95;3.45;;;7.50;63.10;;;;;;5051979;28;20057;-73
2021/04/10 05:33:31;;;;;;;11.32;3.58;;;7.50;63.60;;;;;;5051935;28;20094;-73
2021/04/10 05:35:57;;;;;;;8.15;3.78;;;7.50;64.30;;;;;;5051894;28;20151;-73
2021/04/10 05:38:24;;;;;;;12.63;3.70;;;7.50;63.30;;;;;;5051855;28;20021;-75
2021/04/10 05:40:50;;;;;;;14.23;4.63;;;7.60;62.60;;;;;;5051886;28;20048;-75
2021/04/10 05:43:16;;;;;;;15.10;4.50;;;7.60;62.80;;;;;;5050702;28;20044;-73
2021/04/10 05:45:42;;;;;;;15.77;4.57;;;7.70;62.20;;;;;;5051826;28;20029;-72
2021/04/10 05:48:07;;;;;;;9.38;4.55;;;7.80;62.10;;;;;;5051720;28;20025;-73
2021/04/10 05:50:33;;;;;;;11.70;4.20;;;7.90;62.10;;;;;;5051568;28;20029;-73
2021/04/10 05:52:59;;;;;;;10.38;4.03;;;7.90;62.90;;;;;;5051796;28;20013;-73
2021/04/10 05:55:25;;;;;;;9.57;3.63;;;7.90;62.70;;;;;;5051804;28;20025;-73
2021/04/10 05:57:50;;;;;;;9.05;3.83;;;8.00;62.70;;;;;;5051745;28;20032;-73
2021/04/10 06:00:19;;;;;;;8.05;4.13;;;8.10;63.70;;;;;;5051533;28;20114;-73
2021/04/10 06:02:50;;;;;;;15.13;4.13;;;8.10;64.00;;;;;;5051609;28;20036;-73
2021/04/10 06:05:16;;;;;;;9.60;3.72;;;8.20;61.80;;;;;;5051565;28;20697;-73
2021/04/10 06:07:42;;;;;;;18.92;3.95;;;8.20;61.20;;;;;;5051622;28;20491;-73
2021/04/10 06:10:08;;;;;;;8.02;3.50;;;8.20;61.70;;;;;;5052423;28;20088;-73
2021/04/10 06:12:34;;;;;;;12.23;4.28;;;8.20;62.40;;;;;;5055562;28;20091;-73
2021/04/10 06:15:00;;;;;;;10.73;3.63;;;8.20;62.00;;;;;;5055450;28;20021;-73
2021/04/10 06:17:26;;;;;;;13.77;3.72;;;8.30;62.60;;;;;;5055565;28;20566;-73
2021/04/10 06:19:51;;;;;;;6.97;3.92;;;8.30;61.70;;;;;;5055275;28;20029;-73
2021/04/10 06:22:17;;;;;;;11.95;4.10;;;8.30;61.60;;;;;;5055472;28;20438;-73
2021/04/10 06:24:43;;;;;;;12.88;3.78;;;8.40;61.60;;;;;;5055307;28;20028;-73
2021/04/10 06:27:10;;;;;;;8.02;4.30;;;8.50;61.30;;;;;;5055296;28;20158;-73
2021/04/10 06:29:36;;;;;;;10.18;4.35;;;8.60;61.60;;;;;;5053640;28;20029;-73
2021/04/10 06:32:02;;;;;;;6.20;3.70;;;8.60;61.30;;;;;;5055127;28;20074;-73
2021/04/10 06:34:28;;;;;;;13.77;4.28;;;8.60;61.40;;;;;;5052676;28;20017;-73
2021/04/10 06:36:53;;;;;;;10.43;4.10;;;8.60;61.50;;;;;;5054899;28;20358;-73
2021/04/10 06:39:19;;;;;;;9.32;3.83;;;8.50;62.00;;;;;;5054939;28;20025;-73
2021/04/10 06:41:45;;;;;;;10.63;3.80;;;8.50;62.20;;;;;;5055064;28;20028;-73
2021/04/10 06:44:11;;;;;;;9.50;4.45;;;8.60;62.00;;;;;;5054913;28;20025;-73
2021/04/10 06:46:37;;;;;;;13.90;4.78;;;8.70;61.80;;;;;;5055044;28;20071;-73
2021/04/10 06:49:06;;;;;;;7.80;3.78;;;8.70;61.40;;;;;;5054586;28;20025;-73
2021/04/10 06:51:32;;;;;;;8.38;4.65;;;8.80;61.40;;;;;;5054685;28;20074;-73
2021/04/10 06:54:01;;;;;;;12.75;4.32;;;8.90;61.40;;;;;;5054754;28;20056;-73
2021/04/10 06:56:30;;;;;;;8.43;3.95;;;9.00;61.70;;;;;;5054764;28;20021;-73
2021/04/10 06:59:11;;;;;;;9.30;4.75;;;9.10;62.20;;;;;;5054651;28;20113;-74
2021/04/10 07:01:39;;;;;;;11.13;4.40;;;9.30;62.50;;;;;;5054377;28;20025;-74
2021/04/10 07:04:05;;;;;;;10.93;3.97;;;9.50;61.80;;;;;;5054491;28;20024;-73
2021/04/10 07:06:31;;;;;;;9.32;4.03;;;9.50;60.60;;;;;;5053168;28;20035;-73
2021/04/10 07:08:58;;;;;;;12.00;4.05;;;9.50;60.80;;;;;;5053292;28;20040;-74
2021/04/10 07:11:24;;;;;;;9.32;3.20;;;9.60;61.40;;;;;;5054397;28;20384;-73
2021/04/10 07:13:50;;;;;;;13.95;3.85;;;9.80;61.10;;;;;;5054470;28;20100;-74
2021/04/10 07:16:16;;;;;;;10.98;3.80;;;9.90;59.50;;;;;;5072475;22;20064;-73
2021/04/10 07:18:42;;;;;;;35.45;5.10;;;10.00;59.20;;;;;;5093200;28;20055;-73
2021/04/10 07:21:24;;;;;;;9.45;3.22;;;10.20;59.20;;;;;;5094319;28;20442;-73
2021/04/10 07:23:55;;;;;;;11.93;3.53;;;10.40;58.30;;;;;;5094414;28;20502;-73
2021/04/10 07:26:46;;;;;;;10.20;3.13;;;10.60;58.10;;;;;;5094406;28;20063;-73
2021/04/10 07:29:30;;;;;;;7.77;3.00;;;10.90;57.60;;;;;;5094358;28;20032;-73
2021/04/10 07:31:57;;;;;;;13.00;3.17;;;11.20;58.00;;;;;;5094229;28;20122;-73
2021/04/10 07:34:23;;;;;;;9.73;3.20;;;11.30;56.10;;;;;;5110113;28;20020;-73
2021/04/10 07:36:57;;;;;;;8.20;2.85;;;11.50;56.40;;;;;;5093185;28;20016;-73
2021/04/10 07:39:23;;;;;;;13.50;3.65;;;11.70;56.20;;;;;;5090233;28;20016;-73
2021/04/10 07:42:03;;;;;;;8.50;2.55;;;11.90;56.20;;;;;;5082644;28;20078;-73
2021/04/10 07:44:36;;;;;;;7.50;3.00;;;12.20;55.70;;;;;;5078675;28;20052;-73
2021/04/10 07:47:04;;;;;;;9.38;3.03;;;12.30;54.10;;;;;;5073706;28;20039;-73
2021/04/10 07:49:30;;;;;;;6.95;2.17;;;12.40;54.40;;;;;;5086303;28;20594;-73
2021/04/10 07:51:59;;;;;;;8.93;1.98;;;12.50;54.20;;;;;;5093937;28;20104;-73
2021/04/10 07:54:28;;;;;;;8.13;2.33;;;12.60;53.00;;;;;;5093822;28;20028;-73
2021/04/10 07:57:01;;;;;;;8.77;2.25;;;12.70;53.20;;;;;;5109526;28;20502;-73
2021/04/10 07:59:28;;;;;;;10.02;2.40;;;12.90;54.00;;;;;;5093664;28;20034;-73
2021/04/10 08:01:54;;;;;;;7.00;2.65;;;12.70;52.20;;;;;;5093790;28;20429;-74
2021/04/10 08:04:20;;;;;;;9.20;2.83;;;12.70;52.30;;;;;;5093826;28;20103;-73
2021/04/10 08:06:57;;;;;;;6.90;2.13;;;12.70;53.00;;;;;;5093518;28;20115;-73
2021/04/10 08:09:38;;;;;;;8.35;2.70;;;12.60;52.40;;;;;;5093640;28;20024;-73
2021/04/10 08:12:08;;;;;;;7.95;2.90;;;12.80;53.70;;;;;;5093437;28;20547;-73
2021/04/10 08:14:43;;;;;;;11.23;2.53;;;12.90;52.70;;;;;;5093405;28;20149;-74
2021/04/10 08:17:10;;;;;;;25.60;3.97;;;13.00;52.60;;;;;;5092975;28;20031;-73
2021/04/10 08:19:36;;;;;;;8.20;2.42;;;13.20;53.00;;;;;;5093081;28;20040;-73
2021/04/10 08:22:03;;;;;;;8.75;1.90;;;13.30;52.10;;;;;;5092079;28;20399;-74
2021/04/10 08:24:30;;;;;;;4.18;2.13;;;13.40;51.30;;;;;;5093306;28;20301;-74
2021/04/10 08:27:08;;;;;;;6.00;2.13;;;13.50;51.80;;;;;;5093177;28;20104;-74
2021/04/10 08:29:35;;;;;;;13.20;3.72;;;13.70;51.40;;;;;;5092882;28;20024;-74
2021/04/10 08:32:04;;;;;;;10.43;4.07;;;13.60;50.20;;;;;;5091879;28;20028;-74
2021/04/10 08:34:31;;;;;;;5.72;2.40;;;13.80;50.30;;;;;;5093260;28;20498;-74
2021/04/10 08:37:01;;;;;;;6.82;2.38;;;13.90;50.30;;;;;;5091802;28;20020;-74
2021/04/10 08:39:48;;;;;;;7.93;2.13;;;13.90;50.00;;;;;;5092865;28;20016;-74
2021/04/10 08:42:16;;;;;;;9.00;2.45;;;13.80;49.80;;;;;;5093081;28;20043;-74
2021/04/10 08:44:45;;;;;;;6.93;2.67;;;13.90;50.50;;;;;;5092853;28;20124;-73
2021/04/10 08:47:12;;;;;;;5.53;2.30;;;14.00;50.80;;;;;;5092781;28;20031;-73
2021/04/10 08:49:45;;;;;;;10.25;2.70;;;14.40;50.10;;;;;;5092578;28;20032;-73
2021/04/10 08:52:20;;;;;;;5.88;2.70;;;14.60;49.50;;;;;;5092966;28;20030;-73
2021/04/10 08:54:49;;;;;;;7.97;2.55;;;14.80;49.80;;;;;;5092762;28;20123;-73
2021/04/10 08:57:15;;;;;;;6.35;2.08;;;14.60;49.20;;;;;;5090666;28;20038;-73
2021/04/10 08:59:46;;;;;;;9.43;2.80;;;14.60;49.60;;;;;;5092571;28;20024;-73
2021/04/10 09:02:20;;;;;;;10.98;2.67;;;14.60;49.00;;;;;;5091632;28;20024;-73
2021/04/10 09:05:09;;;;;;;8.55;2.70;;;14.50;49.30;;;;;;5091619;28;20148;-73
2021/04/10 09:07:43;;;;;;;7.57;3.63;;;14.60;48.60;;;;;;5092741;28;20032;-73
2021/04/10 09:10:25;;;;;;;8.18;2.97;;;14.50;49.10;;;;;;5064636;28;20027;-73
2021/04/10 09:13:09;;;;;;;;;;;15.10;49.40;;;;;;5072733;28;20565;-73
2021/04/10 09:15:35;;;;;;;3.38;2.30;;;15.30;48.40;;;;;;5071120;28;19904;-73
2021/04/10 09:18:04;;;;;;;6.85;2.70;;;15.50;48.00;;;;;;5072285;28;20441;-73
2021/04/10 09:20:45;;;;;;;8.70;2.80;;;15.60;47.90;;;;;;5072139;28;20028;-73
2021/04/10 09:23:30;;;;;;;8.00;3.05;;;15.80;47.40;;;;;;5072128;28;20494;-73
2021/04/10 09:26:10;;;;;;;15.13;3.35;;;16.20;47.70;;;;;;5072360;28;20021;-74
2021/04/10 09:28:54;;;;;;;17.13;3.33;;;16.50;46.60;;;;;;5070659;28;20095;-74
2021/04/10 09:31:45;;;;;;;8.65;3.40;;;16.70;46.20;;;;;;5071960;28;20028;-73
2021/04/10 09:34:52;;;;;;;5.97;3.17;;;16.90;46.20;;;;;;5072092;28;20261;-73
2021/04/10 09:37:20;;;;;;;3.42;2.20;;;17.50;44.60;;;;;;5074949;28;20042;-73
2021/04/10 09:39:59;;;;;;;6.60;3.42;;;17.90;43.50;;;;;;5081087;28;20020;-73
2021/04/10 09:45:12;;;;;;;5.95;2.20;;;18.10;44.20;;;;;;5091572;28;20028;-73
2021/04/10 09:47:56;;;;;;;7.03;2.30;;;18.20;43.30;;;;;;5072919;28;20028;-73
2021/04/10 09:50:22;;;;;;;7.47;2.60;;;18.40;44.10;;;;;;5071536;28;20124;-74
2021/04/10 09:52:58;;;;;;;5.20;2.90;;;18.70;42.90;;;;;;5071548;28;20476;-73
2021/04/10 09:55:27;;;;;;;5.65;2.72;;;18.80;42.00;;;;;;5066607;28;20380;-74
2021/04/10 09:57:57;;;;;;;10.73;3.20;;;19.00;41.50;;;;;;5107628;28;20020;-73
2021/04/10 10:00:24;;;;;;;6.85;2.50;;;19.20;41.00;;;;;;5091766;28;20077;-74
2021/04/10 10:02:52;;;;;;;9.30;2.75;;;19.30;40.40;;;;;;5090424;28;20035;-73
2021/04/10 10:05:19;;;;;;;13.10;3.50;;;18.80;40.10;;;;;;5092215;28;20073;-74
2021/04/10 10:07:45;;;;;;;7.90;2.60;;;18.90;41.80;;;;;;5090374;28;20063;-73
2021/04/10 10:10:11;;;;;;;6.75;2.30;;;19.00;42.00;;;;;;5091761;28;20055;-73
2021/04/10 10:12:37;;;;;;;12.63;3.08;;;18.90;40.50;;;;;;5077775;28;20025;-73
2021/04/10 10:15:18;;;;;;;7.10;2.85;;;19.10;42.00;;;;;;5071333;28;20031;-74
2021/04/10 10:17:44;;;;;;;14.35;2.70;;;19.10;40.30;;;;;;5071375;28;20431;-73
2021/04/10 10:20:11;;;;;;;8.95;2.53;;;19.50;41.40;;;;;;5071520;28;20081;-73
2021/04/10 10:22:39;;;;;;;12.70;2.80;;;19.30;40.30;;;;;;5071438;28;20503;-73
2021/04/10 10:25:06;;;;;;;8.93;3.00;;;19.10;41.30;;;;;;5071728;28;20078;-74
2021/04/10 10:27:36;;;;;;;10.20;2.65;;;19.40;42.20;;;;;;5071471;28;20029;-74
2021/04/10 10:30:18;;;;;;;10.98;3.33;;;19.50;41.40;;;;;;5071276;28;20024;-74
2021/04/10 10:32:46;;;;;;;8.05;2.85;;;19.80;40.60;;;;;;5069953;28;20032;-74
2021/04/10 10:35:13;;;;;;;10.23;3.17;;;19.80;39.40;;;;;;5071386;28;20490;-73
2021/04/10 10:37:39;;;;;;;8.50;2.42;;;19.60;40.20;;;;;;5070717;28;20047;-73
2021/04/10 10:40:06;;;;;;;4.05;2.17;;;19.70;39.40;;;;;;5071345;28;20021;-73
2021/04/10 10:42:32;;;;;;;6.18;2.50;;;20.00;39.90;;;;;;5070252;28;20029;-74
2021/04/10 10:44:58;;;;;;;4.38;2.40;;;20.20;38.60;;;;;;5071055;28;20081;-73
2021/04/10 10:47:25;;;;;;;7.28;2.60;;;20.40;38.80;;;;;;5071217;28;20024;-73
2021/04/10 10:49:53;;;;;;;4.75;2.63;;;20.30;38.50;;;;;;5069925;28;20104;-74
2021/04/10 10:52:19;;;;;;;7.32;2.72;;;20.50;38.30;;;;;;5071116;28;20028;-74
2021/04/10 10:54:50;;;;;;;7.57;2.78;;;20.60;38.40;;;;;;5071056;28;20024;-74
2021/04/10 10:57:17;;;;;;;6.30;2.60;;;20.80;38.00;;;;;;5072098;28;20354;-73
2021/04/10 10:59:44;;;;;;;11.02;2.47;;;20.90;38.00;;;;;;5074990;28;20027;-73
2021/04/10 11:02:10;;;;;;;4.72;2.53;;;21.00;38.00;;;;;;5074432;28;20029;-74
2021/04/10 11:04:39;;;;;;;5.72;2.53;;;20.80;37.70;;;;;;5073345;28;20074;-73
2021/04/10 11:07:06;;;;;;;7.82;2.40;;;21.00;38.60;;;;;;5074664;28;20029;-73
2021/04/10 11:09:38;;;;;;;6.43;2.30;;;20.80;38.40;;;;;;5074339;28;20109;-74
2021/04/10 11:12:11;;;;;;;9.40;3.15;;;21.10;37.80;;;;;;5073314;28;20024;-73
2021/04/10 11:14:41;;;;;;;8.27;2.63;;;20.60;39.10;;;;;;5074286;28;20141;-73
2021/04/10 11:17:09;;;;;;;6.75;2.42;;;20.80;38.10;;;;;;5074728;28;20025;-73
2021/04/10 11:19:45;;;;;;;7.50;2.40;;;20.80;37.80;;;;;;5074155;28;20038;-74
2021/04/10 11:22:16;;;;;;;9.73;3.38;;;21.00;38.00;;;;;;5073150;28;20035;-74
2021/04/10 11:24:51;;;;;;;6.88;2.50;;;21.00;38.10;;;;;;5074327;28;20028;-74
2021/04/10 11:27:22;;;;;;;8.68;3.17;;;20.80;38.60;;;;;;5074358;28;20032;-74
2021/04/10 11:30:09;;;;;;;6.82;2.63;;;20.50;40.50;;;;;;5074212;28;20055;-73
2021/04/10 11:32:45;;;;;;;6.15;2.92;;;20.50;39.80;;;;;;5074220;28;20029;-73
2021/04/10 11:35:16;;;;;;;10.05;2.38;;;20.10;40.00;;;;;;5074524;28;20025;-73
2021/04/10 11:37:44;;;;;;;6.82;2.63;;;19.80;39.40;;;;;;5074186;28;20104;-74
2021/04/10 11:40:22;;;;;;;4.88;2.35;;;19.70;40.30;;;;;;5073804;28;20029;-73
2021/04/10 11:42:49;;;;;;;4.47;2.65;;;19.80;39.80;;;;;;5074058;28;20071;-73
2021/04/10 11:45:41;;;;;;;11.55;2.50;;;19.70;40.00;;;;;;5077635;28;20042;-74
2021/04/10 11:48:25;;;;;;;13.70;3.17;;;19.90;40.30;;;;;;5114323;28;20081;-74
2021/04/10 11:50:54;;;;;;;7.22;2.50;;;19.40;40.70;;;;;;5114496;28;20058;-73
2021/04/10 11:53:39;;;;;;;11.52;2.25;;;19.40;41.30;;;;;;5114371;28;20050;-73
2021/04/10 11:56:34;;;;;;;6.85;2.55;;;19.30;39.90;;;;;;5114115;28;20054;-73
2021/04/10 11:59:04;;;;;;;5.32;2.28;;;19.00;41.40;;;;;;5114088;28;20020;-73
2021/04/10 12:01:31;;;;;;;11.15;3.58;;;19.00;41.70;;;;;;5114126;28;20032;-73
2021/04/10 12:03:59;;;;;;;7.55;2.70;;;19.00;41.70;;;;;;5114399;28;20019;-73
2021/04/10 12:06:39;;;;;;;9.25;2.83;;;18.80;41.00;;;;;;5113943;28;20483;-73
2021/04/10 12:09:10;;;;;;;8.25;2.65;;;18.80;42.50;;;;;;5113849;28;20103;-73
2021/04/10 12:11:38;;;;;;;5.47;2.58;;;18.90;41.40;;;;;;5113921;28;20020;-73
2021/04/10 12:14:09;;;;;;;12.15;3.33;;;18.90;42.20;;;;;;5114253;28;20020;-73
2021/04/10 12:16:35;;;;;;;7.07;3.35;;;18.50;42.20;;;;;;5113683;28;20027;-74
2021/04/10 12:19:02;;;;;;;8.25;2.28;;;18.30;43.70;;;;;;5095387;28;20122;-73
2021/04/10 12:21:28;;;;;;;8.40;3.15;;;18.60;42.90;;;;;;5114056;28;20049;-73
2021/04/10 12:23:54;;;;;;;5.03;2.28;;;18.70;41.80;;;;;;5113853;28;20032;-73
2021/04/10 12:26:19;;;;;;;10.45;2.67;;;18.90;42.10;;;;;;5112140;28;20235;-74
2021/04/10 12:28:45;;;;;;;8.80;3.72;;;19.00;41.40;;;;;;5112209;28;20441;-74
2021/04/10 12:31:11;;;;;;;6.50;2.65;;;19.20;42.00;;;;;;5113406;28;20026;-73
2021/04/10 12:33:38;;;;;;;6.15;2.78;;;18.90;41.00;;;;;;5113674;28;20020;-73
2021/04/10 12:36:05;;;;;;;6.60;2.90;;;18.90;42.10;;;;;;5113411;28;20024;-74
2021/04/10 12:38:31;;;;;;;4.40;2.42;;;18.90;42.00;;;;;;5113263;28;20028;-74
2021/04/10 12:40:56;;;;;;;16.23;3.40;;;18.90;40.40;;;;;;5113397;28;20068;-74
2021/04/10 12:43:22;;;;;;;6.97;2.20;;;19.00;41.80;;;;;;5113482;28;20141;-73
2021/04/10 12:45:48;;;;;;;6.22;2.47;;;19.00;42.70;;;;;;5113147;28;20584;-74
2021/04/10 12:48:14;;;;;;;12.57;3.83;;;19.00;41.50;;;;;;5113163;28;20027;-73
2021/04/10 12:50:39;;;;;;;7.22;2.70;;;18.80;41.10;;;;;;5113272;28;20030;-73
2021/04/10 12:53:07;;;;;;;9.70;3.10;;;18.60;41.10;;;;;;5113144;28;20031;-73
2021/04/10 12:55:33;;;;;;;5.35;2.65;;;18.50;41.30;;;;;;5113155;28;20496;-73
2021/04/10 12:57:59;;;;;;;8.57;2.70;;;18.60;42.10;;;;;;5113106;28;20022;-73
2021/04/10 13:00:25;;;;;;;12.43;3.25;;;18.70;41.30;;;;;;5113052;28;20024;-73
2021/04/10 13:02:50;;;;;;;6.82;2.97;;;18.30;42.90;;;;;;5113116;28;20031;-74